sensor_id;sensor_type;location;lat;lon;timestamp;temperature;humidity
13354;DHT22;6746;50.892;4.064;2023-12-28T00:01:44;11.20;99.90
13354;DHT22;6746;50.892;4.064;2023-12-28T00:04:22;11.30;99.90
13354;DHT22;6746;50.892;4.064;2023-12-28T00:07:03;11.30;99.90
13354;DHT22;6746;50.892;4.064;2023-12-28T00:09:41;11.30;99.90
13354;DHT22;6746;50.892;4.064;2023-12-28T00:12:19;11.30;99.90
13354;DHT22;6746;50.892;4.064;2023-12-28T00:14:58;11.30;99.90
13354;DHT22;6746;50.892;4.064;2023-12-28T00:17:39;11.30;99.90
13354;DHT22;6746;50.892;4.064;2023-12-28T00:20:17;11.30;99.90
13354;DHT22;6746;50.892;4.064;2023-12-28T00:22:55;11.30;99.90
13354;DHT22;6746;50.892;4.064;2023-12-28T00:25:33;11.30;99.90
13354;DHT22;6746;50.892;4.064;2023-12-28T00:28:21;11.30;99.90
13354;DHT22;6746;50.892;4.064;2023-12-28T00:31:09;11.30;99.90
13354;DHT22;6746;50.892;4.064;2023-12-28T00:33:57;11.30;99.90
13354;DHT22;6746;50.892;4.064;2023-12-28T00:36:46;11.30;99.90
13354;DHT22;6746;50.892;4.064;2023-12-28T00:39:34;11.30;99.90
13354;DHT22;6746;50.892;4.064;2023-12-28T00:42:22;11.30;99.90
13354;DHT22;6746;50.892;4.064;2023-12-28T00:45:10;11.40;99.90
13354;DHT22;6746;50.892;4.064;2023-12-28T00:47:59;11.30;99.90
13354;DHT22;6746;50.892;4.064;2023-12-28T00:50:47;11.30;99.90
13354;DHT22;6746;50.892;4.064;2023-12-28T00:53:35;11.30;99.90
13354;DHT22;6746;50.892;4.064;2023-12-28T00:56:24;11.30;99.90
13354;DHT22;6746;50.892;4.064;2023-12-28T00:59:12;11.30;99.90
13354;DHT22;6746;50.892;4.064;2023-12-28T01:01:51;11.30;99.90
13354;DHT22;6746;50.892;4.064;2023-12-28T01:04:29;11.30;99.90
13354;DHT22;6746;50.892;4.064;2023-12-28T01:07:07;11.40;99.90
13354;DHT22;6746;50.892;4.064;2023-12-28T01:09:46;11.30;99.90
13354;DHT22;6746;50.892;4.064;2023-12-28T01:12:32;11.30;99.90
13354;DHT22;6746;50.892;4.064;2023-12-28T01:15:10;11.30;99.90
13354;DHT22;6746;50.892;4.064;2023-12-28T01:17:58;11.30;99.90
13354;DHT22;6746;50.892;4.064;2023-12-28T01:20:39;11.30;99.90
13354;DHT22;6746;50.892;4.064;2023-12-28T01:23:17;11.20;99.90
13354;DHT22;6746;50.892;4.064;2023-12-28T01:25:56;11.20;99.90
13354;DHT22;6746;50.892;4.064;2023-12-28T01:28:34;11.20;99.90
13354;DHT22;6746;50.892;4.064;2023-12-28T01:31:12;11.20;99.90
13354;DHT22;6746;50.892;4.064;2023-12-28T01:33:51;11.20;99.90
13354;DHT22;6746;50.892;4.064;2023-12-28T01:36:37;11.20;99.90
13354;DHT22;6746;50.892;4.064;2023-12-28T01:39:15;11.20;99.90
13354;DHT22;6746;50.892;4.064;2023-12-28T01:41:55;11.10;99.90
13354;DHT22;6746;50.892;4.064;2023-12-28T01:44:34;11.10;99.90
13354;DHT22;6746;50.892;4.064;2023-12-28T01:47:12;11.20;99.90
13354;DHT22;6746;50.892;4.064;2023-12-28T01:49:50;11.10;99.90
13354;DHT22;6746;50.892;4.064;2023-12-28T01:52:28;11.20;99.90
13354;DHT22;6746;50.892;4.064;2023-12-28T01:55:06;11.20;99.90
13354;DHT22;6746;50.892;4.064;2023-12-28T01:57:47;11.20;99.90
13354;DHT22;6746;50.892;4.064;2023-12-28T02:00:26;11.10;99.90
13354;DHT22;6746;50.892;4.064;2023-12-28T02:03:08;11.20;99.90
13354;DHT22;6746;50.892;4.064;2023-12-28T02:05:46;11.20;99.90
13354;DHT22;6746;50.892;4.064;2023-12-28T02:08:32;11.30;99.90
13354;DHT22;6746;50.892;4.064;2023-12-28T02:11:10;11.30;99.90
13354;DHT22;6746;50.892;4.064;2023-12-28T02:13:58;11.30;99.90
13354;DHT22;6746;50.892;4.064;2023-12-28T02:16:49;11.30;99.90
13354;DHT22;6746;50.892;4.064;2023-12-28T02:19:55;11.30;99.90
13354;DHT22;6746;50.892;4.064;2023-12-28T02:22:42;11.30;99.90
13354;DHT22;6746;50.892;4.064;2023-12-28T02:25:31;11.30;99.90
13354;DHT22;6746;50.892;4.064;2023-12-28T02:28:19;11.40;99.90
13354;DHT22;6746;50.892;4.064;2023-12-28T02:31:07;11.30;99.90
13354;DHT22;6746;50.892;4.064;2023-12-28T02:33:59;11.40;99.90
13354;DHT22;6746;50.892;4.064;2023-12-28T02:36:46;11.40;99.90
13354;DHT22;6746;50.892;4.064;2023-12-28T02:39:34;11.40;99.90
13354;DHT22;6746;50.892;4.064;2023-12-28T02:42:23;11.40;99.90
13354;DHT22;6746;50.892;4.064;2023-12-28T02:45:11;11.40;99.90
13354;DHT22;6746;50.892;4.064;2023-12-28T02:47:59;11.40;99.90
13354;DHT22;6746;50.892;4.064;2023-12-28T02:50:47;11.40;99.90
13354;DHT22;6746;50.892;4.064;2023-12-28T02:53:36;11.40;99.90
13354;DHT22;6746;50.892;4.064;2023-12-28T02:56:24;11.40;99.90
13354;DHT22;6746;50.892;4.064;2023-12-28T02:59:12;11.40;99.90
13354;DHT22;6746;50.892;4.064;2023-12-28T03:02:00;11.40;99.90
13354;DHT22;6746;50.892;4.064;2023-12-28T03:04:49;11.30;99.90
13354;DHT22;6746;50.892;4.064;2023-12-28T03:07:37;11.30;99.90
13354;DHT22;6746;50.892;4.064;2023-12-28T03:10:25;11.30;99.90
13354;DHT22;6746;50.892;4.064;2023-12-28T03:13:13;11.30;99.90
13354;DHT22;6746;50.892;4.064;2023-12-28T03:15:55;11.20;99.90
13354;DHT22;6746;50.892;4.064;2023-12-28T03:18:33;11.20;99.90
13354;DHT22;6746;50.892;4.064;2023-12-28T03:21:21;11.20;99.90
13354;DHT22;6746;50.892;4.064;2023-12-28T03:24:02;11.10;99.90
13354;DHT22;6746;50.892;4.064;2023-12-28T03:26:40;11.10;99.90
13354;DHT22;6746;50.892;4.064;2023-12-28T03:29:26;11.10;99.90
13354;DHT22;6746;50.892;4.064;2023-12-28T03:32:05;11.10;99.90
13354;DHT22;6746;50.892;4.064;2023-12-28T03:34:53;11.10;99.90
13354;DHT22;6746;50.892;4.064;2023-12-28T03:37:41;11.10;99.90
13354;DHT22;6746;50.892;4.064;2023-12-28T03:40:29;11.10;99.90
13354;DHT22;6746;50.892;4.064;2023-12-28T03:43:17;11.10;99.90
13354;DHT22;6746;50.892;4.064;2023-12-28T03:46:04;11.10;99.90
13354;DHT22;6746;50.892;4.064;2023-12-28T03:48:42;11.00;99.90
13354;DHT22;6746;50.892;4.064;2023-12-28T03:51:23;11.00;99.90
13354;DHT22;6746;50.892;4.064;2023-12-28T03:54:01;11.00;99.90
13354;DHT22;6746;50.892;4.064;2023-12-28T03:56:49;11.00;99.90
13354;DHT22;6746;50.892;4.064;2023-12-28T03:59:37;11.00;99.90
13354;DHT22;6746;50.892;4.064;2023-12-28T04:02:15;11.00;99.90
13354;DHT22;6746;50.892;4.064;2023-12-28T04:04:53;11.00;99.90
13354;DHT22;6746;50.892;4.064;2023-12-28T04:07:31;11.00;99.90
13354;DHT22;6746;50.892;4.064;2023-12-28T04:10:10;11.00;99.90
13354;DHT22;6746;50.892;4.064;2023-12-28T04:12:48;11.00;99.90
13354;DHT22;6746;50.892;4.064;2023-12-28T04:15:26;11.00;99.90
13354;DHT22;6746;50.892;4.064;2023-12-28T04:18:10;11.00;99.90
13354;DHT22;6746;50.892;4.064;2023-12-28T04:20:48;11.00;99.90
13354;DHT22;6746;50.892;4.064;2023-12-28T04:23:29;11.10;99.90
13354;DHT22;6746;50.892;4.064;2023-12-28T04:26:08;11.10;99.90
13354;DHT22;6746;50.892;4.064;2023-12-28T04:28:48;11.20;99.90
13354;DHT22;6746;50.892;4.064;2023-12-28T04:31:27;11.20;99.90
13354;DHT22;6746;50.892;4.064;2023-12-28T04:34:15;11.30;99.90
13354;DHT22;6746;50.892;4.064;2023-12-28T04:37:03;11.20;99.90
13354;DHT22;6746;50.892;4.064;2023-12-28T04:39:51;11.30;99.90
13354;DHT22;6746;50.892;4.064;2023-12-28T04:42:40;11.30;99.90
13354;DHT22;6746;50.892;4.064;2023-12-28T04:45:21;11.30;99.90
13354;DHT22;6746;50.892;4.064;2023-12-28T04:47:59;11.30;99.90
13354;DHT22;6746;50.892;4.064;2023-12-28T04:50:37;11.20;99.90
13354;DHT22;6746;50.892;4.064;2023-12-28T04:53:15;11.10;99.90
13354;DHT22;6746;50.892;4.064;2023-12-28T04:55:56;11.10;99.90
13354;DHT22;6746;50.892;4.064;2023-12-28T04:58:34;11.00;99.90
13354;DHT22;6746;50.892;4.064;2023-12-28T05:01:12;11.10;99.90
13354;DHT22;6746;50.892;4.064;2023-12-28T05:03:51;11.10;99.90
13354;DHT22;6746;50.892;4.064;2023-12-28T05:06:37;11.10;99.90
13354;DHT22;6746;50.892;4.064;2023-12-28T05:09:15;11.10;99.90
13354;DHT22;6746;50.892;4.064;2023-12-28T05:11:56;11.10;99.90
13354;DHT22;6746;50.892;4.064;2023-12-28T05:14:34;11.20;99.90
13354;DHT22;6746;50.892;4.064;2023-12-28T05:17:20;11.20;99.90
13354;DHT22;6746;50.892;4.064;2023-12-28T05:19:58;11.20;99.90
13354;DHT22;6746;50.892;4.064;2023-12-28T05:22:44;11.20;99.90
13354;DHT22;6746;50.892;4.064;2023-12-28T05:25:23;11.20;99.90
13354;DHT22;6746;50.892;4.064;2023-12-28T05:28:04;11.30;99.90
13354;DHT22;6746;50.892;4.064;2023-12-28T05:30:42;11.30;99.90
13354;DHT22;6746;50.892;4.064;2023-12-28T05:33:23;11.30;99.90
13354;DHT22;6746;50.892;4.064;2023-12-28T05:36:01;11.30;99.90
13354;DHT22;6746;50.892;4.064;2023-12-28T05:38:42;11.30;99.90
13354;DHT22;6746;50.892;4.064;2023-12-28T05:41:20;11.30;99.90
13354;DHT22;6746;50.892;4.064;2023-12-28T05:43:58;11.20;99.90
13354;DHT22;6746;50.892;4.064;2023-12-28T05:46:36;11.10;99.90
13354;DHT22;6746;50.892;4.064;2023-12-28T05:49:17;11.10;99.90
13354;DHT22;6746;50.892;4.064;2023-12-28T05:51:55;11.10;99.90
13354;DHT22;6746;50.892;4.064;2023-12-28T05:54:43;11.00;99.90
13354;DHT22;6746;50.892;4.064;2023-12-28T05:57:29;11.00;99.90
13354;DHT22;6746;50.892;4.064;2023-12-28T06:00:08;11.00;99.90
13354;DHT22;6746;50.892;4.064;2023-12-28T06:02:56;11.10;99.90
13354;DHT22;6746;50.892;4.064;2023-12-28T06:05:34;11.10;99.90
13354;DHT22;6746;50.892;4.064;2023-12-28T06:08:13;11.10;99.90
13354;DHT22;6746;50.892;4.064;2023-12-28T06:10:53;11.10;99.90
13354;DHT22;6746;50.892;4.064;2023-12-28T06:13:32;11.00;99.90
13354;DHT22;6746;50.892;4.064;2023-12-28T06:16:13;10.90;99.90
13354;DHT22;6746;50.892;4.064;2023-12-28T06:18:51;11.00;99.90
13354;DHT22;6746;50.892;4.064;2023-12-28T06:21:29;11.00;99.90
13354;DHT22;6746;50.892;4.064;2023-12-28T06:24:07;10.90;99.90
13354;DHT22;6746;50.892;4.064;2023-12-28T06:26:55;10.80;99.90
13354;DHT22;6746;50.892;4.064;2023-12-28T06:29:34;10.90;99.90
13354;DHT22;6746;50.892;4.064;2023-12-28T06:32:12;10.90;99.90
13354;DHT22;6746;50.892;4.064;2023-12-28T06:34:50;10.80;99.90
13354;DHT22;6746;50.892;4.064;2023-12-28T06:37:29;10.80;99.90
13354;DHT22;6746;50.892;4.064;2023-12-28T06:40:10;10.70;99.90
13354;DHT22;6746;50.892;4.064;2023-12-28T06:42:48;10.70;99.90
13354;DHT22;6746;50.892;4.064;2023-12-28T06:45:36;10.70;99.90
13354;DHT22;6746;50.892;4.064;2023-12-28T06:48:14;10.80;99.90
13354;DHT22;6746;50.892;4.064;2023-12-28T06:50:53;10.80;99.90
13354;DHT22;6746;50.892;4.064;2023-12-28T06:53:40;10.70;99.90
13354;DHT22;6746;50.892;4.064;2023-12-28T06:56:28;10.80;99.90
13354;DHT22;6746;50.892;4.064;2023-12-28T06:59:17;10.80;99.90
13354;DHT22;6746;50.892;4.064;2023-12-28T07:02:05;10.70;99.90
13354;DHT22;6746;50.892;4.064;2023-12-28T07:04:53;10.70;99.90
13354;DHT22;6746;50.892;4.064;2023-12-28T07:07:39;10.70;99.90
13354;DHT22;6746;50.892;4.064;2023-12-28T07:10:18;10.70;99.90
13354;DHT22;6746;50.892;4.064;2023-12-28T07:12:59;10.60;99.90
13354;DHT22;6746;50.892;4.064;2023-12-28T07:15:37;10.60;99.90
13354;DHT22;6746;50.892;4.064;2023-12-28T07:18:15;10.60;99.90
13354;DHT22;6746;50.892;4.064;2023-12-28T07:20:54;10.60;99.90
13354;DHT22;6746;50.892;4.064;2023-12-28T07:23:42;10.60;99.90
13354;DHT22;6746;50.892;4.064;2023-12-28T07:26:30;10.60;99.90
13354;DHT22;6746;50.892;4.064;2023-12-28T07:29:11;10.50;99.90
13354;DHT22;6746;50.892;4.064;2023-12-28T07:31:49;10.50;99.90
13354;DHT22;6746;50.892;4.064;2023-12-28T07:34:37;10.50;99.90
13354;DHT22;6746;50.892;4.064;2023-12-28T07:37:25;10.40;99.90
13354;DHT22;6746;50.892;4.064;2023-12-28T07:40:13;10.40;99.90
13354;DHT22;6746;50.892;4.064;2023-12-28T07:43:01;10.50;99.90
13354;DHT22;6746;50.892;4.064;2023-12-28T07:45:50;10.50;99.90
13354;DHT22;6746;50.892;4.064;2023-12-28T07:48:38;10.60;99.90
13354;DHT22;6746;50.892;4.064;2023-12-28T07:51:16;10.60;99.90
13354;DHT22;6746;50.892;4.064;2023-12-28T07:53:47;10.60;99.90
13354;DHT22;6746;50.892;4.064;2023-12-28T07:56:16;10.60;99.90
13354;DHT22;6746;50.892;4.064;2023-12-28T07:58:53;10.60;99.90
13354;DHT22;6746;50.892;4.064;2023-12-28T08:01:21;10.50;99.90
13354;DHT22;6746;50.892;4.064;2023-12-28T08:03:50;10.50;99.90
13354;DHT22;6746;50.892;4.064;2023-12-28T08:06:19;10.40;99.90
13354;DHT22;6746;50.892;4.064;2023-12-28T08:08:52;10.40;99.90
13354;DHT22;6746;50.892;4.064;2023-12-28T08:11:21;10.50;99.90
13354;DHT22;6746;50.892;4.064;2023-12-28T08:13:59;10.50;99.90
13354;DHT22;6746;50.892;4.064;2023-12-28T08:16:38;10.50;99.90
13354;DHT22;6746;50.892;4.064;2023-12-28T08:19:16;10.60;99.90
13354;DHT22;6746;50.892;4.064;2023-12-28T08:21:54;10.70;99.90
13354;DHT22;6746;50.892;4.064;2023-12-28T08:24:38;10.80;99.90
13354;DHT22;6746;50.892;4.064;2023-12-28T08:27:17;10.80;99.90
13354;DHT22;6746;50.892;4.064;2023-12-28T08:29:55;10.80;99.90
13354;DHT22;6746;50.892;4.064;2023-12-28T08:32:33;10.90;99.90
13354;DHT22;6746;50.892;4.064;2023-12-28T08:35:08;10.90;99.90
13354;DHT22;6746;50.892;4.064;2023-12-28T08:37:37;10.90;99.90
13354;DHT22;6746;50.892;4.064;2023-12-28T08:40:16;10.90;99.90
13354;DHT22;6746;50.892;4.064;2023-12-28T08:42:53;10.90;99.90
13354;DHT22;6746;50.892;4.064;2023-12-28T08:45:23;11.00;99.90
13354;DHT22;6746;50.892;4.064;2023-12-28T08:47:52;11.00;99.90
13354;DHT22;6746;50.892;4.064;2023-12-28T08:50:21;11.10;99.90
13354;DHT22;6746;50.892;4.064;2023-12-28T08:52:52;11.10;99.90
13354;DHT22;6746;50.892;4.064;2023-12-28T08:55:23;11.10;99.90
13354;DHT22;6746;50.892;4.064;2023-12-28T08:57:52;11.10;99.90
13354;DHT22;6746;50.892;4.064;2023-12-28T09:00:21;11.00;99.90
13354;DHT22;6746;50.892;4.064;2023-12-28T09:02:50;11.10;99.90
13354;DHT22;6746;50.892;4.064;2023-12-28T09:05:19;11.10;99.90
13354;DHT22;6746;50.892;4.064;2023-12-28T09:07:53;11.10;99.90
13354;DHT22;6746;50.892;4.064;2023-12-28T09:10:22;11.20;99.90
13354;DHT22;6746;50.892;4.064;2023-12-28T09:12:56;11.10;99.90
13354;DHT22;6746;50.892;4.064;2023-12-28T09:15:25;11.10;99.90
13354;DHT22;6746;50.892;4.064;2023-12-28T09:18:04;11.10;99.90
13354;DHT22;6746;50.892;4.064;2023-12-28T09:20:37;11.10;99.90
13354;DHT22;6746;50.892;4.064;2023-12-28T09:23:08;11.20;99.90
13354;DHT22;6746;50.892;4.064;2023-12-28T09:25:37;11.20;99.90
13354;DHT22;6746;50.892;4.064;2023-12-28T09:28:06;11.30;99.90
13354;DHT22;6746;50.892;4.064;2023-12-28T09:30:45;11.40;99.90
13354;DHT22;6746;50.892;4.064;2023-12-28T09:33:19;11.50;99.90
13354;DHT22;6746;50.892;4.064;2023-12-28T09:35:47;11.50;99.90
13354;DHT22;6746;50.892;4.064;2023-12-28T09:38:19;11.50;99.90
13354;DHT22;6746;50.892;4.064;2023-12-28T09:40:50;11.60;99.90
13354;DHT22;6746;50.892;4.064;2023-12-28T09:43:26;11.60;99.90
13354;DHT22;6746;50.892;4.064;2023-12-28T09:45:56;11.60;99.90
13354;DHT22;6746;50.892;4.064;2023-12-28T09:48:27;11.60;99.90
13354;DHT22;6746;50.892;4.064;2023-12-28T09:50:56;11.70;99.90
13354;DHT22;6746;50.892;4.064;2023-12-28T09:53:30;11.70;99.90
13354;DHT22;6746;50.892;4.064;2023-12-28T09:55:59;11.70;99.90
13354;DHT22;6746;50.892;4.064;2023-12-28T09:58:30;11.70;99.90
13354;DHT22;6746;50.892;4.064;2023-12-28T10:00:59;11.70;99.90
13354;DHT22;6746;50.892;4.064;2023-12-28T10:03:29;11.60;99.90
13354;DHT22;6746;50.892;4.064;2023-12-28T10:05:57;11.60;99.90
13354;DHT22;6746;50.892;4.064;2023-12-28T10:08:26;11.60;99.90
13354;DHT22;6746;50.892;4.064;2023-12-28T10:10:55;11.70;99.90
13354;DHT22;6746;50.892;4.064;2023-12-28T10:13:33;11.70;99.90
13354;DHT22;6746;50.892;4.064;2023-12-28T10:16:11;11.70;99.90
13354;DHT22;6746;50.892;4.064;2023-12-28T10:18:41;11.80;99.90
13354;DHT22;6746;50.892;4.064;2023-12-28T10:21:10;11.80;99.90
13354;DHT22;6746;50.892;4.064;2023-12-28T10:23:39;11.80;99.90
13354;DHT22;6746;50.892;4.064;2023-12-28T10:26:18;11.80;99.90
13354;DHT22;6746;50.892;4.064;2023-12-28T10:28:46;11.80;99.90
13354;DHT22;6746;50.892;4.064;2023-12-28T10:31:15;11.80;99.90
13354;DHT22;6746;50.892;4.064;2023-12-28T10:34:04;11.90;99.90
13354;DHT22;6746;50.892;4.064;2023-12-28T10:36:42;11.90;99.90
13354;DHT22;6746;50.892;4.064;2023-12-28T10:39:20;11.90;99.90
13354;DHT22;6746;50.892;4.064;2023-12-28T10:41:49;11.90;99.90
13354;DHT22;6746;50.892;4.064;2023-12-28T10:44:19;11.90;99.90
13354;DHT22;6746;50.892;4.064;2023-12-28T10:47:00;12.00;99.90
13354;DHT22;6746;50.892;4.064;2023-12-28T10:49:27;12.00;99.90
13354;DHT22;6746;50.892;4.064;2023-12-28T10:52:06;12.10;99.90
13354;DHT22;6746;50.892;4.064;2023-12-28T10:54:47;12.10;99.90
13354;DHT22;6746;50.892;4.064;2023-12-28T10:57:40;12.10;99.90
13354;DHT22;6746;50.892;4.064;2023-12-28T11:00:20;12.20;99.90
13354;DHT22;6746;50.892;4.064;2023-12-28T11:02:58;12.20;99.90
13354;DHT22;6746;50.892;4.064;2023-12-28T11:05:26;12.30;99.90
13354;DHT22;6746;50.892;4.064;2023-12-28T11:07:54;12.30;99.90
13354;DHT22;6746;50.892;4.064;2023-12-28T11:10:28;12.30;99.90
13354;DHT22;6746;50.892;4.064;2023-12-28T11:12:56;12.40;99.90
13354;DHT22;6746;50.892;4.064;2023-12-28T11:15:34;12.30;99.90
13354;DHT22;6746;50.892;4.064;2023-12-28T11:18:02;12.40;99.90
13354;DHT22;6746;50.892;4.064;2023-12-28T11:20:31;12.40;99.90
13354;DHT22;6746;50.892;4.064;2023-12-28T11:23:10;12.40;99.90
13354;DHT22;6746;50.892;4.064;2023-12-28T11:25:46;12.40;99.90
13354;DHT22;6746;50.892;4.064;2023-12-28T11:28:15;12.40;99.90
13354;DHT22;6746;50.892;4.064;2023-12-28T11:30:44;12.40;99.90
13354;DHT22;6746;50.892;4.064;2023-12-28T11:33:13;12.40;99.90
13354;DHT22;6746;50.892;4.064;2023-12-28T11:35:52;12.50;99.90
13354;DHT22;6746;50.892;4.064;2023-12-28T11:38:29;12.50;99.90
13354;DHT22;6746;50.892;4.064;2023-12-28T11:41:03;12.50;99.90
13354;DHT22;6746;50.892;4.064;2023-12-28T11:43:29;12.50;99.90
13354;DHT22;6746;50.892;4.064;2023-12-28T11:45:58;12.50;99.90
13354;DHT22;6746;50.892;4.064;2023-12-28T11:48:27;12.60;99.90
13354;DHT22;6746;50.892;4.064;2023-12-28T11:51:03;12.60;99.90
13354;DHT22;6746;50.892;4.064;2023-12-28T11:53:31;12.60;99.90
13354;DHT22;6746;50.892;4.064;2023-12-28T11:56:03;12.60;99.90
13354;DHT22;6746;50.892;4.064;2023-12-28T11:58:31;12.60;99.90
13354;DHT22;6746;50.892;4.064;2023-12-28T12:01:00;12.60;99.90
13354;DHT22;6746;50.892;4.064;2023-12-28T12:03:28;12.70;99.90
13354;DHT22;6746;50.892;4.064;2023-12-28T12:05:56;12.60;99.90
13354;DHT22;6746;50.892;4.064;2023-12-28T12:08:25;12.60;99.90
13354;DHT22;6746;50.892;4.064;2023-12-28T12:11:06;12.60;99.90
13354;DHT22;6746;50.892;4.064;2023-12-28T12:13:37;12.60;99.90
13354;DHT22;6746;50.892;4.064;2023-12-28T12:16:05;12.70;99.90
13354;DHT22;6746;50.892;4.064;2023-12-28T12:18:34;12.70;99.90
13354;DHT22;6746;50.892;4.064;2023-12-28T12:21:02;12.70;99.90
13354;DHT22;6746;50.892;4.064;2023-12-28T12:23:33;12.70;99.90
13354;DHT22;6746;50.892;4.064;2023-12-28T12:26:04;12.70;99.90
13354;DHT22;6746;50.892;4.064;2023-12-28T12:28:40;12.70;99.90
13354;DHT22;6746;50.892;4.064;2023-12-28T12:31:18;12.70;99.90
13354;DHT22;6746;50.892;4.064;2023-12-28T12:33:56;12.70;99.90
13354;DHT22;6746;50.892;4.064;2023-12-28T12:36:25;12.70;99.90
13354;DHT22;6746;50.892;4.064;2023-12-28T12:38:53;12.70;99.90
13354;DHT22;6746;50.892;4.064;2023-12-28T12:41:25;12.60;99.90
13354;DHT22;6746;50.892;4.064;2023-12-28T12:43:53;12.50;99.90
13354;DHT22;6746;50.892;4.064;2023-12-28T12:46:21;12.50;99.90
13354;DHT22;6746;50.892;4.064;2023-12-28T12:48:58;12.50;99.90
13354;DHT22;6746;50.892;4.064;2023-12-28T12:51:36;12.50;99.90
13354;DHT22;6746;50.892;4.064;2023-12-28T12:54:12;12.50;99.90
13354;DHT22;6746;50.892;4.064;2023-12-28T12:56:40;12.50;99.90
13354;DHT22;6746;50.892;4.064;2023-12-28T12:59:17;12.50;99.90
13354;DHT22;6746;50.892;4.064;2023-12-28T13:01:48;12.50;99.90
13354;DHT22;6746;50.892;4.064;2023-12-28T13:04:19;12.50;99.90
13354;DHT22;6746;50.892;4.064;2023-12-28T13:06:48;12.50;99.90
13354;DHT22;6746;50.892;4.064;2023-12-28T13:09:16;12.50;99.90
13354;DHT22;6746;50.892;4.064;2023-12-28T13:11:44;12.50;99.90
13354;DHT22;6746;50.892;4.064;2023-12-28T13:14:21;12.50;99.90
13354;DHT22;6746;50.892;4.064;2023-12-28T13:16:49;12.60;99.90
13354;DHT22;6746;50.892;4.064;2023-12-28T13:19:17;12.70;99.90
13354;DHT22;6746;50.892;4.064;2023-12-28T13:21:45;12.70;99.90
13354;DHT22;6746;50.892;4.064;2023-12-28T13:24:17;12.60;99.90
13354;DHT22;6746;50.892;4.064;2023-12-28T13:26:45;12.60;99.90
13354;DHT22;6746;50.892;4.064;2023-12-28T13:29:33;12.70;99.90
13354;DHT22;6746;50.892;4.064;2023-12-28T13:32:11;12.60;99.90
13354;DHT22;6746;50.892;4.064;2023-12-28T13:34:50;12.60;99.90
13354;DHT22;6746;50.892;4.064;2023-12-28T13:37:36;12.60;99.90
13354;DHT22;6746;50.892;4.064;2023-12-28T13:40:14;12.50;99.90
13354;DHT22;6746;50.892;4.064;2023-12-28T13:42:45;12.50;99.90
13354;DHT22;6746;50.892;4.064;2023-12-28T13:45:16;12.50;99.90
13354;DHT22;6746;50.892;4.064;2023-12-28T13:47:54;12.50;99.90
13354;DHT22;6746;50.892;4.064;2023-12-28T13:50:32;12.50;99.90
13354;DHT22;6746;50.892;4.064;2023-12-28T13:53:10;12.50;99.90
13354;DHT22;6746;50.892;4.064;2023-12-28T13:55:48;12.50;99.90
13354;DHT22;6746;50.892;4.064;2023-12-28T13:58:34;12.40;99.90
13354;DHT22;6746;50.892;4.064;2023-12-28T14:01:03;12.40;99.90
13354;DHT22;6746;50.892;4.064;2023-12-28T14:03:41;12.40;99.90
13354;DHT22;6746;50.892;4.064;2023-12-28T14:06:19;12.40;99.90
13354;DHT22;6746;50.892;4.064;2023-12-28T14:08:59;12.40;99.90
13354;DHT22;6746;50.892;4.064;2023-12-28T14:11:38;12.40;99.90
13354;DHT22;6746;50.892;4.064;2023-12-28T14:14:16;12.40;99.90
13354;DHT22;6746;50.892;4.064;2023-12-28T14:17:04;12.40;99.90
13354;DHT22;6746;50.892;4.064;2023-12-28T14:19:32;12.40;99.90
13354;DHT22;6746;50.892;4.064;2023-12-28T14:22:00;12.40;99.90
13354;DHT22;6746;50.892;4.064;2023-12-28T14:24:39;12.30;99.90
13354;DHT22;6746;50.892;4.064;2023-12-28T14:27:07;12.30;99.90
13354;DHT22;6746;50.892;4.064;2023-12-28T14:29:36;12.30;99.90
13354;DHT22;6746;50.892;4.064;2023-12-28T14:32:04;12.30;99.90
13354;DHT22;6746;50.892;4.064;2023-12-28T14:34:33;12.30;99.90
13354;DHT22;6746;50.892;4.064;2023-12-28T14:37:09;12.30;99.90
13354;DHT22;6746;50.892;4.064;2023-12-28T14:39:38;12.20;99.90
13354;DHT22;6746;50.892;4.064;2023-12-28T14:42:16;12.20;99.90
13354;DHT22;6746;50.892;4.064;2023-12-28T14:44:54;12.20;99.90
13354;DHT22;6746;50.892;4.064;2023-12-28T14:47:22;12.20;99.90
13354;DHT22;6746;50.892;4.064;2023-12-28T14:49:51;12.10;99.90
13354;DHT22;6746;50.892;4.064;2023-12-28T14:52:29;12.10;99.90
13354;DHT22;6746;50.892;4.064;2023-12-28T14:55:03;12.10;99.90
13354;DHT22;6746;50.892;4.064;2023-12-28T14:57:32;12.10;99.90
13354;DHT22;6746;50.892;4.064;2023-12-28T15:00:11;12.10;99.90
13354;DHT22;6746;50.892;4.064;2023-12-28T15:02:49;12.10;99.90
13354;DHT22;6746;50.892;4.064;2023-12-28T15:05:27;12.00;99.90
13354;DHT22;6746;50.892;4.064;2023-12-28T15:08:05;12.00;99.90
13354;DHT22;6746;50.892;4.064;2023-12-28T15:10:39;12.10;99.90
13354;DHT22;6746;50.892;4.064;2023-12-28T15:13:08;12.00;99.90
13354;DHT22;6746;50.892;4.064;2023-12-28T15:15:37;12.00;99.90
13354;DHT22;6746;50.892;4.064;2023-12-28T15:18:06;12.00;99.90
13354;DHT22;6746;50.892;4.064;2023-12-28T15:20:45;11.90;99.90
13354;DHT22;6746;50.892;4.064;2023-12-28T15:23:16;11.90;99.90
13354;DHT22;6746;50.892;4.064;2023-12-28T15:25:45;11.90;99.90
13354;DHT22;6746;50.892;4.064;2023-12-28T15:28:19;11.90;99.90
13354;DHT22;6746;50.892;4.064;2023-12-28T15:30:48;11.90;99.90
13354;DHT22;6746;50.892;4.064;2023-12-28T15:33:17;11.90;99.90
13354;DHT22;6746;50.892;4.064;2023-12-28T15:35:46;11.90;99.90
13354;DHT22;6746;50.892;4.064;2023-12-28T15:38:24;11.80;99.90
13354;DHT22;6746;50.892;4.064;2023-12-28T15:40:55;11.80;99.90
13354;DHT22;6746;50.892;4.064;2023-12-28T15:43:24;11.80;99.90
13354;DHT22;6746;50.892;4.064;2023-12-28T15:45:53;11.70;99.90
13354;DHT22;6746;50.892;4.064;2023-12-28T15:48:24;11.80;99.90
13354;DHT22;6746;50.892;4.064;2023-12-28T15:51:01;11.70;99.90
13354;DHT22;6746;50.892;4.064;2023-12-28T15:53:33;11.70;99.90
13354;DHT22;6746;50.892;4.064;2023-12-28T15:56:04;11.80;99.90
13354;DHT22;6746;50.892;4.064;2023-12-28T15:58:33;11.80;99.90
13354;DHT22;6746;50.892;4.064;2023-12-28T16:01:10;11.70;99.90
13354;DHT22;6746;50.892;4.064;2023-12-28T16:03:39;11.70;99.90
13354;DHT22;6746;50.892;4.064;2023-12-28T16:06:10;11.70;99.90
13354;DHT22;6746;50.892;4.064;2023-12-28T16:08:39;11.80;99.90
13354;DHT22;6746;50.892;4.064;2023-12-28T16:11:17;11.80;99.90
13354;DHT22;6746;50.892;4.064;2023-12-28T16:13:56;11.80;99.90
13354;DHT22;6746;50.892;4.064;2023-12-28T16:16:37;11.80;99.90
13354;DHT22;6746;50.892;4.064;2023-12-28T16:19:15;11.80;99.90
13354;DHT22;6746;50.892;4.064;2023-12-28T16:21:53;11.80;99.90
13354;DHT22;6746;50.892;4.064;2023-12-28T16:24:31;11.90;99.90
13354;DHT22;6746;50.892;4.064;2023-12-28T16:27:10;11.90;99.90
13354;DHT22;6746;50.892;4.064;2023-12-28T16:29:48;11.90;99.90
13354;DHT22;6746;50.892;4.064;2023-12-28T16:32:26;11.90;99.90
13354;DHT22;6746;50.892;4.064;2023-12-28T16:35:04;11.90;99.90
13354;DHT22;6746;50.892;4.064;2023-12-28T16:37:45;11.90;99.90
13354;DHT22;6746;50.892;4.064;2023-12-28T16:40:25;11.80;99.90
13354;DHT22;6746;50.892;4.064;2023-12-28T16:43:11;11.80;99.90
13354;DHT22;6746;50.892;4.064;2023-12-28T16:45:49;11.80;99.90
13354;DHT22;6746;50.892;4.064;2023-12-28T16:48:31;11.80;99.90
13354;DHT22;6746;50.892;4.064;2023-12-28T16:51:09;11.80;99.90